Robeson, Pennsylvania
Current Conditions -  °F | °C
As of 1:54 PM on Friday 31 Oct 2014 (Local Time) from KRDG Reporting Station
Clear Clear  
Wind Chill: 54°   Ceiling: Unl
Heat Index: 54°   Visibility: 10mi
Dew Point: 31°   Wind: 10mph
Humidity: 41%   Direction: 30°NNE
Pressure: 29.91"   Gusts: NA
Location:  40.2313°N, 75.8555°W
Report Text: KRDG 311754Z 03009KT 10SM CLR 12/M01 A2991 RMK AO2 SLP136 T01221006 10122 20017 58026
Loading
Personal Weather Stations






























Interactive Weather Map
Tropical Storm Tracking
New forecast layout! Learn more

10-Day Weather Forecast

Advertisements
Track Severe Weather on mobile